sensor_id;sensor_type;location;lat;lon;timestamp;P1;durP1;ratioP1;P2;durP2;ratioP2
8562;SDS011;16392;52.508;13.468;2022-07-04T00:01:12;478.65;;;234.57;;
8562;SDS011;16392;52.508;13.468;2022-07-04T00:03:39;477.63;;;240.95;;
8562;SDS011;16392;52.508;13.468;2022-07-04T00:06:05;474.60;;;233.93;;
8562;SDS011;16392;52.508;13.468;2022-07-04T00:08:32;474.80;;;234.48;;
8562;SDS011;16392;52.508;13.468;2022-07-04T00:11:00;472.75;;;232.05;;
8562;SDS011;16392;52.508;13.468;2022-07-04T00:13:27;470.20;;;218.35;;
8562;SDS011;16392;52.508;13.468;2022-07-04T00:15:54;475.95;;;236.73;;
8562;SDS011;16392;52.508;13.468;2022-07-04T00:18:20;478.08;;;249.13;;
8562;SDS011;16392;52.508;13.468;2022-07-04T00:20:47;478.30;;;233.45;;
8562;SDS011;16392;52.508;13.468;2022-07-04T00:23:13;475.17;;;239.60;;
8562;SDS011;16392;52.508;13.468;2022-07-04T00:25:40;476.73;;;243.90;;
8562;SDS011;16392;52.508;13.468;2022-07-04T00:28:08;476.17;;;238.68;;
8562;SDS011;16392;52.508;13.468;2022-07-04T00:30:35;474.40;;;240.38;;
8562;SDS011;16392;52.508;13.468;2022-07-04T00:33:01;484.98;;;248.48;;
8562;SDS011;16392;52.508;13.468;2022-07-04T00:35:28;473.45;;;225.63;;
8562;SDS011;16392;52.508;13.468;2022-07-04T00:37:54;481.58;;;260.90;;
8562;SDS011;16392;52.508;13.468;2022-07-04T00:40:21;478.17;;;246.95;;
8562;SDS011;16392;52.508;13.468;2022-07-04T00:42:48;475.23;;;241.60;;
8562;SDS011;16392;52.508;13.468;2022-07-04T00:45:16;473.15;;;231.27;;
8562;SDS011;16392;52.508;13.468;2022-07-04T00:47:42;470.08;;;226.63;;
8562;SDS011;16392;52.508;13.468;2022-07-04T00:50:09;475.70;;;238.15;;
8562;SDS011;16392;52.508;13.468;2022-07-04T00:52:36;476.70;;;245.50;;
8562;SDS011;16392;52.508;13.468;2022-07-04T00:55:03;477.08;;;239.77;;
8562;SDS011;16392;52.508;13.468;2022-07-04T00:57:30;473.92;;;235.02;;
8562;SDS011;16392;52.508;13.468;2022-07-04T00:59:57;474.30;;;236.07;;
8562;SDS011;16392;52.508;13.468;2022-07-04T01:02:25;473.90;;;235.27;;
8562;SDS011;16392;52.508;13.468;2022-07-04T01:04:51;476.15;;;236.48;;
8562;SDS011;16392;52.508;13.468;2022-07-04T01:07:18;467.80;;;213.50;;
8562;SDS011;16392;52.508;13.468;2022-07-04T01:09:45;473.80;;;233.60;;
8562;SDS011;16392;52.508;13.468;2022-07-04T01:12:23;469.85;;;218.20;;
8562;SDS011;16392;52.508;13.468;2022-07-04T01:14:50;478.50;;;247.95;;
8562;SDS011;16392;52.508;13.468;2022-07-04T01:17:17;463.38;;;196.57;;
8562;SDS011;16392;52.508;13.468;2022-07-04T01:19:45;475.40;;;234.73;;
8562;SDS011;16392;52.508;13.468;2022-07-04T01:22:13;465.50;;;204.23;;
8562;SDS011;16392;52.508;13.468;2022-07-04T01:24:40;473.48;;;228.25;;
8562;SDS011;16392;52.508;13.468;2022-07-04T01:27:07;468.38;;;214.75;;
8562;SDS011;16392;52.508;13.468;2022-07-04T01:29:33;470.83;;;222.70;;
8562;SDS011;16392;52.508;13.468;2022-07-04T01:32:03;470.95;;;217.52;;
8562;SDS011;16392;52.508;13.468;2022-07-04T01:34:30;468.90;;;211.70;;
8562;SDS011;16392;52.508;13.468;2022-07-04T01:36:58;469.73;;;219.57;;
8562;SDS011;16392;52.508;13.468;2022-07-04T01:39:26;469.38;;;210.40;;
8562;SDS011;16392;52.508;13.468;2022-07-04T01:41:53;468.10;;;209.48;;
8562;SDS011;16392;52.508;13.468;2022-07-04T01:44:20;467.05;;;204.98;;
8562;SDS011;16392;52.508;13.468;2022-07-04T01:46:47;467.30;;;204.88;;
8562;SDS011;16392;52.508;13.468;2022-07-04T01:49:14;464.02;;;199.60;;
8562;SDS011;16392;52.508;13.468;2022-07-04T01:51:43;471.58;;;219.82;;
8562;SDS011;16392;52.508;13.468;2022-07-04T01:54:10;467.65;;;203.57;;
8562;SDS011;16392;52.508;13.468;2022-07-04T01:56:38;464.95;;;195.45;;
8562;SDS011;16392;52.508;13.468;2022-07-04T01:59:05;473.05;;;220.30;;
8562;SDS011;16392;52.508;13.468;2022-07-04T02:01:32;468.85;;;202.98;;
8562;SDS011;16392;52.508;13.468;2022-07-04T02:03:59;465.20;;;205.27;;
8562;SDS011;16392;52.508;13.468;2022-07-04T02:06:27;466.20;;;194.50;;
8562;SDS011;16392;52.508;13.468;2022-07-04T02:08:54;463.60;;;187.68;;
8562;SDS011;16392;52.508;13.468;2022-07-04T02:11:40;463.08;;;188.48;;
8562;SDS011;16392;52.508;13.468;2022-07-04T02:14:21;468.42;;;205.10;;
8562;SDS011;16392;52.508;13.468;2022-07-04T02:16:48;461.20;;;189.63;;
8562;SDS011;16392;52.508;13.468;2022-07-04T02:19:14;463.75;;;194.75;;
8562;SDS011;16392;52.508;13.468;2022-07-04T02:21:41;459.73;;;182.00;;
8562;SDS011;16392;52.508;13.468;2022-07-04T02:24:08;466.35;;;196.00;;
8562;SDS011;16392;52.508;13.468;2022-07-04T02:26:35;461.73;;;185.55;;
8562;SDS011;16392;52.508;13.468;2022-07-04T02:29:03;465.92;;;187.88;;
8562;SDS011;16392;52.508;13.468;2022-07-04T02:31:29;464.27;;;196.40;;
8562;SDS011;16392;52.508;13.468;2022-07-04T02:33:56;465.08;;;198.20;;
8562;SDS011;16392;52.508;13.468;2022-07-04T02:36:23;464.20;;;193.75;;
8562;SDS011;16392;52.508;13.468;2022-07-04T02:38:49;461.80;;;182.80;;
8562;SDS011;16392;52.508;13.468;2022-07-04T02:41:16;460.55;;;181.77;;
8562;SDS011;16392;52.508;13.468;2022-07-04T02:43:42;459.90;;;177.07;;
8562;SDS011;16392;52.508;13.468;2022-07-04T02:46:10;460.65;;;183.18;;
8562;SDS011;16392;52.508;13.468;2022-07-04T02:48:37;456.17;;;168.27;;
8562;SDS011;16392;52.508;13.468;2022-07-04T02:51:03;459.83;;;179.10;;
8562;SDS011;16392;52.508;13.468;2022-07-04T02:53:30;455.27;;;167.93;;
8562;SDS011;16392;52.508;13.468;2022-07-04T02:55:57;459.95;;;174.85;;
8562;SDS011;16392;52.508;13.468;2022-07-04T02:58:23;455.63;;;169.38;;
8562;SDS011;16392;52.508;13.468;2022-07-04T03:00:50;457.48;;;180.73;;
8562;SDS011;16392;52.508;13.468;2022-07-04T03:03:18;459.00;;;178.70;;
8562;SDS011;16392;52.508;13.468;2022-07-04T03:05:44;457.77;;;173.77;;
8562;SDS011;16392;52.508;13.468;2022-07-04T03:08:11;460.13;;;173.05;;
8562;SDS011;16392;52.508;13.468;2022-07-04T03:10:38;457.63;;;172.18;;
8562;SDS011;16392;52.508;13.468;2022-07-04T03:13:04;456.15;;;170.18;;
8562;SDS011;16392;52.508;13.468;2022-07-04T03:15:31;456.98;;;175.02;;
8562;SDS011;16392;52.508;13.468;2022-07-04T03:17:59;452.27;;;162.32;;
8562;SDS011;16392;52.508;13.468;2022-07-04T03:20:27;457.15;;;169.00;;
8562;SDS011;16392;52.508;13.468;2022-07-04T03:22:54;458.63;;;182.15;;
8562;SDS011;16392;52.508;13.468;2022-07-04T03:25:20;456.05;;;164.60;;
8562;SDS011;16392;52.508;13.468;2022-07-04T03:27:47;452.63;;;167.20;;
8562;SDS011;16392;52.508;13.468;2022-07-04T03:30:14;452.58;;;167.15;;
8562;SDS011;16392;52.508;13.468;2022-07-04T03:32:40;455.63;;;170.43;;
8562;SDS011;16392;52.508;13.468;2022-07-04T03:35:07;455.20;;;165.23;;
8562;SDS011;16392;52.508;13.468;2022-07-04T03:37:36;453.42;;;166.90;;
8562;SDS011;16392;52.508;13.468;2022-07-04T03:40:03;459.30;;;183.23;;
8562;SDS011;16392;52.508;13.468;2022-07-04T03:42:30;454.42;;;166.85;;
8562;SDS011;16392;52.508;13.468;2022-07-04T03:44:57;458.63;;;179.38;;
8562;SDS011;16392;52.508;13.468;2022-07-04T03:47:24;462.58;;;191.25;;
8562;SDS011;16392;52.508;13.468;2022-07-04T03:49:50;457.80;;;170.15;;
8562;SDS011;16392;52.508;13.468;2022-07-04T03:52:17;461.30;;;191.63;;
8562;SDS011;16392;52.508;13.468;2022-07-04T03:54:45;462.40;;;191.93;;
8562;SDS011;16392;52.508;13.468;2022-07-04T03:57:12;454.65;;;172.80;;
8562;SDS011;16392;52.508;13.468;2022-07-04T03:59:39;457.00;;;169.82;;
8562;SDS011;16392;52.508;13.468;2022-07-04T04:02:05;456.73;;;177.50;;
8562;SDS011;16392;52.508;13.468;2022-07-04T04:04:32;460.17;;;177.73;;
8562;SDS011;16392;52.508;13.468;2022-07-04T04:07:16;457.67;;;174.13;;
8562;SDS011;16392;52.508;13.468;2022-07-04T04:09:43;453.05;;;167.02;;
8562;SDS011;16392;52.508;13.468;2022-07-04T04:12:11;459.58;;;178.50;;
8562;SDS011;16392;52.508;13.468;2022-07-04T04:14:38;459.75;;;182.82;;
8562;SDS011;16392;52.508;13.468;2022-07-04T04:17:04;460.95;;;185.25;;
8562;SDS011;16392;52.508;13.468;2022-07-04T04:19:31;459.33;;;182.15;;
8562;SDS011;16392;52.508;13.468;2022-07-04T04:21:57;459.98;;;185.80;;
8562;SDS011;16392;52.508;13.468;2022-07-04T04:24:24;463.77;;;194.77;;
8562;SDS011;16392;52.508;13.468;2022-07-04T04:26:51;457.95;;;178.07;;
8562;SDS011;16392;52.508;13.468;2022-07-04T04:29:19;458.35;;;184.77;;
8562;SDS011;16392;52.508;13.468;2022-07-04T04:31:46;464.15;;;197.85;;
8562;SDS011;16392;52.508;13.468;2022-07-04T04:34:12;468.00;;;201.85;;
8562;SDS011;16392;52.508;13.468;2022-07-04T04:36:39;467.67;;;208.60;;
8562;SDS011;16392;52.508;13.468;2022-07-04T04:39:05;463.02;;;195.63;;
8562;SDS011;16392;52.508;13.468;2022-07-04T04:41:32;470.13;;;214.57;;
8562;SDS011;16392;52.508;13.468;2022-07-04T04:43:58;468.52;;;206.15;;
8562;SDS011;16392;52.508;13.468;2022-07-04T04:46:26;470.27;;;220.85;;
8562;SDS011;16392;52.508;13.468;2022-07-04T04:48:53;473.45;;;230.80;;
8562;SDS011;16392;52.508;13.468;2022-07-04T04:51:20;473.58;;;216.15;;
8562;SDS011;16392;52.508;13.468;2022-07-04T04:53:46;478.75;;;236.07;;
8562;SDS011;16392;52.508;13.468;2022-07-04T04:56:13;481.08;;;248.45;;
8562;SDS011;16392;52.508;13.468;2022-07-04T04:58:40;480.92;;;256.25;;
8562;SDS011;16392;52.508;13.468;2022-07-04T05:01:06;488.20;;;270.85;;
8562;SDS011;16392;52.508;13.468;2022-07-04T05:03:34;495.67;;;298.33;;
8562;SDS011;16392;52.508;13.468;2022-07-04T05:06:01;489.65;;;277.95;;
8562;SDS011;16392;52.508;13.468;2022-07-04T05:08:29;494.30;;;297.55;;
8562;SDS011;16392;52.508;13.468;2022-07-04T05:10:55;493.67;;;299.63;;
8562;SDS011;16392;52.508;13.468;2022-07-04T05:13:22;494.88;;;303.38;;
8562;SDS011;16392;52.508;13.468;2022-07-04T05:15:48;496.98;;;310.88;;
8562;SDS011;16392;52.508;13.468;2022-07-04T05:18:16;499.23;;;325.45;;
8562;SDS011;16392;52.508;13.468;2022-07-04T05:20:44;502.33;;;338.35;;
8562;SDS011;16392;52.508;13.468;2022-07-04T05:23:10;502.50;;;339.02;;
8562;SDS011;16392;52.508;13.468;2022-07-04T05:25:37;505.83;;;350.30;;
8562;SDS011;16392;52.508;13.468;2022-07-04T05:28:04;502.63;;;344.05;;
8562;SDS011;16392;52.508;13.468;2022-07-04T05:30:31;502.25;;;341.92;;
8562;SDS011;16392;52.508;13.468;2022-07-04T05:32:58;507.55;;;356.92;;
8562;SDS011;16392;52.508;13.468;2022-07-04T05:35:26;509.38;;;362.90;;
8562;SDS011;16392;52.508;13.468;2022-07-04T05:37:56;510.77;;;381.55;;
8562;SDS011;16392;52.508;13.468;2022-07-04T05:40:23;505.67;;;356.67;;
8562;SDS011;16392;52.508;13.468;2022-07-04T05:42:50;500.70;;;339.83;;
8562;SDS011;16392;52.508;13.468;2022-07-04T05:45:17;501.08;;;338.80;;
8562;SDS011;16392;52.508;13.468;2022-07-04T05:47:43;503.30;;;342.85;;
8562;SDS011;16392;52.508;13.468;2022-07-04T05:50:10;500.17;;;336.70;;
8562;SDS011;16392;52.508;13.468;2022-07-04T05:52:37;493.70;;;316.33;;
8562;SDS011;16392;52.508;13.468;2022-07-04T05:55:05;494.30;;;315.05;;
8562;SDS011;16392;52.508;13.468;2022-07-04T05:57:33;503.85;;;344.73;;
8562;SDS011;16392;52.508;13.468;2022-07-04T06:00:00;494.13;;;313.88;;
8562;SDS011;16392;52.508;13.468;2022-07-04T06:02:26;508.58;;;353.23;;
8562;SDS011;16392;52.508;13.468;2022-07-04T06:04:53;509.15;;;370.77;;
8562;SDS011;16392;52.508;13.468;2022-07-04T06:07:20;512.33;;;379.55;;
8562;SDS011;16392;52.508;13.468;2022-07-04T06:09:47;508.35;;;372.45;;
8562;SDS011;16392;52.508;13.468;2022-07-04T06:12:15;513.78;;;386.23;;
8562;SDS011;16392;52.508;13.468;2022-07-04T06:14:41;518.35;;;419.15;;
8562;SDS011;16392;52.508;13.468;2022-07-04T06:17:08;518.22;;;424.10;;
8562;SDS011;16392;52.508;13.468;2022-07-04T06:19:35;517.00;;;422.63;;
8562;SDS011;16392;52.508;13.468;2022-07-04T06:22:02;523.80;;;446.70;;
8562;SDS011;16392;52.508;13.468;2022-07-04T06:24:29;521.83;;;446.58;;
8562;SDS011;16392;52.508;13.468;2022-07-04T06:26:55;528.30;;;469.30;;
8562;SDS011;16392;52.508;13.468;2022-07-04T06:29:23;550.05;;;491.10;;
8562;SDS011;16392;52.508;13.468;2022-07-04T06:31:50;541.25;;;482.55;;
8562;SDS011;16392;52.508;13.468;2022-07-04T06:34:17;541.20;;;482.58;;
8562;SDS011;16392;52.508;13.468;2022-07-04T06:37:01;558.50;;;499.33;;
8562;SDS011;16392;52.508;13.468;2022-07-04T06:39:28;571.45;;;512.05;;
8562;SDS011;16392;52.508;13.468;2022-07-04T06:41:55;528.83;;;466.83;;
8562;SDS011;16392;52.508;13.468;2022-07-04T06:44:21;521.92;;;456.00;;
8562;SDS011;16392;52.508;13.468;2022-07-04T06:46:49;533.17;;;474.70;;
8562;SDS011;16392;52.508;13.468;2022-07-04T06:49:16;521.60;;;447.92;;
8562;SDS011;16392;52.508;13.468;2022-07-04T06:51:43;520.25;;;438.55;;
8562;SDS011;16392;52.508;13.468;2022-07-04T06:54:09;521.70;;;443.70;;
8562;SDS011;16392;52.508;13.468;2022-07-04T06:56:36;521.40;;;442.10;;
8562;SDS011;16392;52.508;13.468;2022-07-04T06:59:03;517.95;;;429.17;;
8562;SDS011;16392;52.508;13.468;2022-07-04T07:01:31;517.60;;;420.48;;
8562;SDS011;16392;52.508;13.468;2022-07-04T07:03:58;523.72;;;450.40;;
8562;SDS011;16392;52.508;13.468;2022-07-04T07:06:24;518.00;;;435.83;;
8562;SDS011;16392;52.508;13.468;2022-07-04T07:08:51;512.20;;;410.52;;
8562;SDS011;16392;52.508;13.468;2022-07-04T07:11:18;520.40;;;434.27;;
8562;SDS011;16392;52.508;13.468;2022-07-04T07:13:46;520.33;;;453.33;;
8562;SDS011;16392;52.508;13.468;2022-07-04T07:16:14;535.90;;;477.20;;
8562;SDS011;16392;52.508;13.468;2022-07-04T07:18:42;524.55;;;463.52;;
8562;SDS011;16392;52.508;13.468;2022-07-04T07:21:10;523.63;;;462.23;;
8562;SDS011;16392;52.508;13.468;2022-07-04T07:23:37;522.40;;;459.38;;
8562;SDS011;16392;52.508;13.468;2022-07-04T07:26:05;537.70;;;479.35;;
8562;SDS011;16392;52.508;13.468;2022-07-04T07:28:31;526.50;;;457.27;;
8562;SDS011;16392;52.508;13.468;2022-07-04T07:30:58;519.70;;;443.60;;
8562;SDS011;16392;52.508;13.468;2022-07-04T07:33:25;534.47;;;476.13;;
8562;SDS011;16392;52.508;13.468;2022-07-04T07:35:52;537.60;;;479.17;;
8562;SDS011;16392;52.508;13.468;2022-07-04T07:38:19;560.92;;;502.00;;
8562;SDS011;16392;52.508;13.468;2022-07-04T07:40:46;568.63;;;509.60;;
8562;SDS011;16392;52.508;13.468;2022-07-04T07:43:12;575.05;;;516.00;;
8562;SDS011;16392;52.508;13.468;2022-07-04T07:45:39;537.00;;;478.52;;
8562;SDS011;16392;52.508;13.468;2022-07-04T07:48:06;548.42;;;489.98;;
8562;SDS011;16392;52.508;13.468;2022-07-04T07:50:32;560.95;;;501.98;;
8562;SDS011;16392;52.508;13.468;2022-07-04T07:53:01;565.28;;;506.38;;
8562;SDS011;16392;52.508;13.468;2022-07-04T07:55:27;548.92;;;490.38;;
8562;SDS011;16392;52.508;13.468;2022-07-04T07:57:54;530.05;;;471.77;;
8562;SDS011;16392;52.508;13.468;2022-07-04T08:00:23;538.08;;;479.48;;
8562;SDS011;16392;52.508;13.468;2022-07-04T08:02:49;520.28;;;445.08;;
8562;SDS011;16392;52.508;13.468;2022-07-04T08:05:33;514.75;;;418.08;;
8562;SDS011;16392;52.508;13.468;2022-07-04T08:08:01;517.63;;;428.38;;
8562;SDS011;16392;52.508;13.468;2022-07-04T08:10:28;516.78;;;420.42;;
8562;SDS011;16392;52.508;13.468;2022-07-04T08:12:55;513.40;;;409.23;;
8562;SDS011;16392;52.508;13.468;2022-07-04T08:15:23;515.63;;;426.08;;
8562;SDS011;16392;52.508;13.468;2022-07-04T08:17:50;518.35;;;438.48;;
8562;SDS011;16392;52.508;13.468;2022-07-04T08:20:18;521.22;;;448.80;;
8562;SDS011;16392;52.508;13.468;2022-07-04T08:22:45;518.28;;;432.80;;
8562;SDS011;16392;52.508;13.468;2022-07-04T08:25:12;513.42;;;415.67;;
8562;SDS011;16392;52.508;13.468;2022-07-04T08:27:40;517.28;;;420.75;;
8562;SDS011;16392;52.508;13.468;2022-07-04T08:30:07;517.67;;;426.15;;
8562;SDS011;16392;52.508;13.468;2022-07-04T08:32:34;510.90;;;406.98;;
8562;SDS011;16392;52.508;13.468;2022-07-04T08:35:01;511.48;;;398.55;;
8562;SDS011;16392;52.508;13.468;2022-07-04T08:37:29;512.22;;;393.38;;
8562;SDS011;16392;52.508;13.468;2022-07-04T08:39:56;509.95;;;391.00;;
8562;SDS011;16392;52.508;13.468;2022-07-04T08:42:23;514.15;;;413.30;;
8562;SDS011;16392;52.508;13.468;2022-07-04T08:44:53;517.72;;;427.17;;
8562;SDS011;16392;52.508;13.468;2022-07-04T08:47:21;517.63;;;434.13;;
8562;SDS011;16392;52.508;13.468;2022-07-04T08:49:52;555.17;;;496.05;;
8562;SDS011;16392;52.508;13.468;2022-07-04T08:52:26;553.10;;;494.45;;
8562;SDS011;16392;52.508;13.468;2022-07-04T08:55:00;582.30;;;522.95;;
8562;SDS011;16392;52.508;13.468;2022-07-04T08:57:46;575.92;;;516.70;;
8562;SDS011;16392;52.508;13.468;2022-07-04T09:00:32;581.35;;;522.17;;
8562;SDS011;16392;52.508;13.468;2022-07-04T09:02:59;589.67;;;530.13;;
8562;SDS011;16392;52.508;13.468;2022-07-04T09:05:28;638.50;;;578.05;;
8562;SDS011;16392;52.508;13.468;2022-07-04T09:07:54;651.17;;;590.30;;
8562;SDS011;16392;52.508;13.468;2022-07-04T09:10:21;676.72;;;615.00;;
8562;SDS011;16392;52.508;13.468;2022-07-04T09:12:50;679.47;;;618.33;;
8562;SDS011;16392;52.508;13.468;2022-07-04T09:15:17;686.90;;;625.25;;
8562;SDS011;16392;52.508;13.468;2022-07-04T09:17:44;698.92;;;637.08;;
8562;SDS011;16392;52.508;13.468;2022-07-04T09:20:12;699.83;;;638.05;;
8562;SDS011;16392;52.508;13.468;2022-07-04T09:22:40;740.75;;;677.90;;
8562;SDS011;16392;52.508;13.468;2022-07-04T09:25:07;737.83;;;675.08;;
8562;SDS011;16392;52.508;13.468;2022-07-04T09:27:38;739.47;;;677.00;;
8562;SDS011;16392;52.508;13.468;2022-07-04T09:30:08;723.72;;;661.47;;
8562;SDS011;16392;52.508;13.468;2022-07-04T09:32:37;691.70;;;630.05;;
8562;SDS011;16392;52.508;13.468;2022-07-04T09:35:06;692.60;;;631.15;;
8562;SDS011;16392;52.508;13.468;2022-07-04T09:37:35;672.35;;;611.28;;
8562;SDS011;16392;52.508;13.468;2022-07-04T09:40:04;656.47;;;595.47;;
8562;SDS011;16392;52.508;13.468;2022-07-04T09:42:36;658.40;;;597.60;;
8562;SDS011;16392;52.508;13.468;2022-07-04T09:45:04;669.95;;;608.92;;
8562;SDS011;16392;52.508;13.468;2022-07-04T09:47:33;677.33;;;616.00;;
8562;SDS011;16392;52.508;13.468;2022-07-04T09:50:00;685.97;;;624.70;;
8562;SDS011;16392;52.508;13.468;2022-07-04T09:52:27;727.78;;;665.40;;
8562;SDS011;16392;52.508;13.468;2022-07-04T09:54:56;732.78;;;670.08;;
8562;SDS011;16392;52.508;13.468;2022-07-04T09:57:24;726.72;;;664.33;;
8562;SDS011;16392;52.508;13.468;2022-07-04T09:59:51;749.70;;;686.88;;
8562;SDS011;16392;52.508;13.468;2022-07-04T10:02:17;735.42;;;673.05;;
8562;SDS011;16392;52.508;13.468;2022-07-04T10:04:47;751.22;;;688.33;;
8562;SDS011;16392;52.508;13.468;2022-07-04T10:07:29;746.08;;;683.13;;
8562;SDS011;16392;52.508;13.468;2022-07-04T10:10:01;766.47;;;703.28;;
8562;SDS011;16392;52.508;13.468;2022-07-04T10:12:48;755.45;;;692.42;;
8562;SDS011;16392;52.508;13.468;2022-07-04T10:15:15;756.95;;;694.08;;
8562;SDS011;16392;52.508;13.468;2022-07-04T10:17:42;741.90;;;679.30;;
8562;SDS011;16392;52.508;13.468;2022-07-04T10:20:10;722.63;;;660.33;;
8562;SDS011;16392;52.508;13.468;2022-07-04T10:22:38;713.42;;;651.50;;
8562;SDS011;16392;52.508;13.468;2022-07-04T10:25:05;725.35;;;663.25;;
8562;SDS011;16392;52.508;13.468;2022-07-04T10:27:34;709.97;;;648.28;;
8562;SDS011;16392;52.508;13.468;2022-07-04T10:30:03;702.33;;;640.70;;
8562;SDS011;16392;52.508;13.468;2022-07-04T10:32:32;702.58;;;640.92;;
8562;SDS011;16392;52.508;13.468;2022-07-04T10:34:59;698.28;;;636.72;;
8562;SDS011;16392;52.508;13.468;2022-07-04T10:40:41;674.08;;;613.08;;
8562;SDS011;16392;52.508;13.468;2022-07-04T10:46:22;667.00;;;606.05;;
8562;SDS011;16392;52.508;13.468;2022-07-04T10:48:54;653.15;;;592.38;;
8562;SDS011;16392;52.508;13.468;2022-07-04T10:51:32;650.05;;;589.45;;
8562;SDS011;16392;52.508;13.468;2022-07-04T10:54:06;654.90;;;594.42;;
8562;SDS011;16392;52.508;13.468;2022-07-04T10:56:36;699.63;;;637.83;;
8562;SDS011;16392;52.508;13.468;2022-07-04T10:59:07;717.78;;;655.55;;
8562;SDS011;16392;52.508;13.468;2022-07-04T11:01:34;723.30;;;661.28;;
8562;SDS011;16392;52.508;13.468;2022-07-04T11:04:01;723.55;;;661.50;;
8562;SDS011;16392;52.508;13.468;2022-07-04T11:06:49;722.28;;;659.92;;
8562;SDS011;16392;52.508;13.468;2022-07-04T11:09:19;701.45;;;639.78;;
8562;SDS011;16392;52.508;13.468;2022-07-04T11:11:47;662.13;;;601.47;;
8562;SDS011;16392;52.508;13.468;2022-07-04T11:14:30;696.85;;;635.15;;
8562;SDS011;16392;52.508;13.468;2022-07-04T11:16:58;664.33;;;603.38;;
8562;SDS011;16392;52.508;13.468;2022-07-04T11:19:26;670.00;;;609.00;;
8562;SDS011;16392;52.508;13.468;2022-07-04T11:21:53;643.92;;;583.55;;
8562;SDS011;16392;52.508;13.468;2022-07-04T11:24:21;659.08;;;598.35;;
8562;SDS011;16392;52.508;13.468;2022-07-04T11:26:49;651.45;;;590.10;;
8562;SDS011;16392;52.508;13.468;2022-07-04T11:29:15;639.28;;;579.00;;
8562;SDS011;16392;52.508;13.468;2022-07-04T11:31:43;646.83;;;586.30;;
8562;SDS011;16392;52.508;13.468;2022-07-04T11:34:11;623.67;;;563.78;;
8562;SDS011;16392;52.508;13.468;2022-07-04T11:36:38;637.38;;;577.35;;
8562;SDS011;16392;52.508;13.468;2022-07-04T11:39:06;638.70;;;578.40;;
8562;SDS011;16392;52.508;13.468;2022-07-04T11:41:35;635.72;;;575.55;;
8562;SDS011;16392;52.508;13.468;2022-07-04T11:44:21;629.63;;;569.65;;
8562;SDS011;16392;52.508;13.468;2022-07-04T11:47:08;628.50;;;568.30;;
8562;SDS011;16392;52.508;13.468;2022-07-04T11:49:41;640.63;;;580.40;;
8562;SDS011;16392;52.508;13.468;2022-07-04T11:52:09;665.97;;;605.10;;
8562;SDS011;16392;52.508;13.468;2022-07-04T11:54:36;677.75;;;616.53;;
8562;SDS011;16392;52.508;13.468;2022-07-04T11:57:10;680.08;;;618.95;;
8562;SDS011;16392;52.508;13.468;2022-07-04T11:59:42;698.33;;;636.33;;
8562;SDS011;16392;52.508;13.468;2022-07-04T12:02:09;702.13;;;640.45;;
8562;SDS011;16392;52.508;13.468;2022-07-04T12:04:37;724.28;;;661.95;;
8562;SDS011;16392;52.508;13.468;2022-07-04T12:07:07;723.38;;;661.20;;
8562;SDS011;16392;52.508;13.468;2022-07-04T12:09:35;763.35;;;700.08;;
8562;SDS011;16392;52.508;13.468;2022-07-04T12:12:02;818.42;;;753.53;;
8562;SDS011;16392;52.508;13.468;2022-07-04T12:14:31;789.28;;;725.33;;
8562;SDS011;16392;52.508;13.468;2022-07-04T12:17:13;805.05;;;740.53;;
8562;SDS011;16392;52.508;13.468;2022-07-04T12:19:54;804.10;;;739.85;;
8562;SDS011;16392;52.508;13.468;2022-07-04T12:22:28;777.63;;;714.15;;
8562;SDS011;16392;52.508;13.468;2022-07-04T12:24:57;760.08;;;697.00;;
8562;SDS011;16392;52.508;13.468;2022-07-04T12:27:24;766.83;;;703.58;;
8562;SDS011;16392;52.508;13.468;2022-07-04T12:29:53;743.22;;;680.50;;
8562;SDS011;16392;52.508;13.468;2022-07-04T12:32:20;728.92;;;666.67;;
8562;SDS011;16392;52.508;13.468;2022-07-04T12:34:47;705.20;;;643.17;;
8562;SDS011;16392;52.508;13.468;2022-07-04T12:37:15;717.42;;;655.50;;
8562;SDS011;16392;52.508;13.468;2022-07-04T12:39:42;735.83;;;673.28;;
8562;SDS011;16392;52.508;13.468;2022-07-04T12:42:10;751.15;;;688.22;;
8562;SDS011;16392;52.508;13.468;2022-07-04T12:44:38;774.03;;;709.97;;
8562;SDS011;16392;52.508;13.468;2022-07-04T12:47:06;765.13;;;701.97;;
8562;SDS011;16392;52.508;13.468;2022-07-04T12:49:34;752.85;;;689.58;;
8562;SDS011;16392;52.508;13.468;2022-07-04T12:52:04;767.05;;;703.78;;
8562;SDS011;16392;52.508;13.468;2022-07-04T12:54:31;768.40;;;705.03;;
8562;SDS011;16392;52.508;13.468;2022-07-04T12:57:08;797.17;;;733.00;;
8562;SDS011;16392;52.508;13.468;2022-07-04T12:59:37;805.92;;;741.17;;
8562;SDS011;16392;52.508;13.468;2022-07-04T13:02:04;801.08;;;736.75;;
8562;SDS011;16392;52.508;13.468;2022-07-04T13:04:33;823.42;;;758.58;;
8562;SDS011;16392;52.508;13.468;2022-07-04T13:07:11;811.47;;;746.58;;
8562;SDS011;16392;52.508;13.468;2022-07-04T13:09:39;770.53;;;707.33;;
8562;SDS011;16392;52.508;13.468;2022-07-04T13:12:07;782.45;;;718.72;;
8562;SDS011;16392;52.508;13.468;2022-07-04T13:14:53;772.75;;;709.45;;
8562;SDS011;16392;52.508;13.468;2022-07-04T13:17:21;768.63;;;705.30;;
8562;SDS011;16392;52.508;13.468;2022-07-04T13:19:50;787.95;;;724.22;;
8562;SDS011;16392;52.508;13.468;2022-07-04T13:22:18;784.40;;;720.78;;
8562;SDS011;16392;52.508;13.468;2022-07-04T13:24:45;742.78;;;680.28;;
8562;SDS011;16392;52.508;13.468;2022-07-04T13:27:12;766.30;;;703.00;;
8562;SDS011;16392;52.508;13.468;2022-07-04T13:29:38;731.67;;;669.30;;
8562;SDS011;16392;52.508;13.468;2022-07-04T13:32:05;713.72;;;651.72;;
8562;SDS011;16392;52.508;13.468;2022-07-04T13:34:32;708.47;;;646.63;;
8562;SDS011;16392;52.508;13.468;2022-07-04T13:37:01;734.78;;;672.22;;
8562;SDS011;16392;52.508;13.468;2022-07-04T13:39:28;759.90;;;696.67;;
8562;SDS011;16392;52.508;13.468;2022-07-04T13:41:55;767.33;;;703.75;;
8562;SDS011;16392;52.508;13.468;2022-07-04T13:44:21;785.35;;;721.40;;
8562;SDS011;16392;52.508;13.468;2022-07-04T13:46:48;815.15;;;750.40;;
8562;SDS011;16392;52.508;13.468;2022-07-04T13:49:15;841.17;;;775.67;;
8562;SDS011;16392;52.508;13.468;2022-07-04T13:51:41;846.75;;;781.08;;
8562;SDS011;16392;52.508;13.468;2022-07-04T13:54:09;861.83;;;795.63;;
8562;SDS011;16392;52.508;13.468;2022-07-04T13:56:36;857.75;;;791.72;;
8562;SDS011;16392;52.508;13.468;2022-07-04T13:59:03;884.65;;;817.72;;
8562;SDS011;16392;52.508;13.468;2022-07-04T14:01:29;893.17;;;826.17;;
8562;SDS011;16392;52.508;13.468;2022-07-04T14:03:56;891.83;;;824.67;;
8562;SDS011;16392;52.508;13.468;2022-07-04T14:06:23;866.30;;;800.05;;
8562;SDS011;16392;52.508;13.468;2022-07-04T14:08:49;870.67;;;804.42;;